sensor_id;sensor_type;location;lat;lon;timestamp;P1;durP1;ratioP1;P2;durP2;ratioP2
18072;SDS011;9161;47.348;9.648;2022-11-13T00:01:28;38.90;;;16.70;;
18072;SDS011;9161;47.348;9.648;2022-11-13T06:56:16;12.87;;;6.53;;
18072;SDS011;9161;47.348;9.648;2022-11-13T07:01:03;14.80;;;6.63;;
18072;SDS011;9161;47.348;9.648;2022-11-13T07:05:48;12.43;;;6.40;;
18072;SDS011;9161;47.348;9.648;2022-11-13T07:10:31;16.17;;;7.77;;
18072;SDS011;9161;47.348;9.648;2022-11-13T07:15:16;14.67;;;7.50;;
18072;SDS011;9161;47.348;9.648;2022-11-13T07:20:00;14.87;;;7.53;;
18072;SDS011;9161;47.348;9.648;2022-11-13T07:24:43;17.77;;;8.07;;
18072;SDS011;9161;47.348;9.648;2022-11-13T07:29:27;18.43;;;8.53;;
18072;SDS011;9161;47.348;9.648;2022-11-13T07:34:12;16.40;;;7.67;;
18072;SDS011;9161;47.348;9.648;2022-11-13T07:38:56;16.87;;;8.30;;
18072;SDS011;9161;47.348;9.648;2022-11-13T07:43:40;19.50;;;8.23;;
18072;SDS011;9161;47.348;9.648;2022-11-13T07:48:24;13.60;;;7.77;;
18072;SDS011;9161;47.348;9.648;2022-11-13T07:53:10;13.70;;;7.07;;
18072;SDS011;9161;47.348;9.648;2022-11-13T07:57:54;16.60;;;8.27;;
18072;SDS011;9161;47.348;9.648;2022-11-13T08:02:40;14.30;;;7.10;;
18072;SDS011;9161;47.348;9.648;2022-11-13T08:07:23;16.23;;;7.93;;
18072;SDS011;9161;47.348;9.648;2022-11-13T08:12:09;17.37;;;8.03;;
18072;SDS011;9161;47.348;9.648;2022-11-13T08:16:52;17.97;;;8.60;;
18072;SDS011;9161;47.348;9.648;2022-11-13T08:21:36;18.03;;;8.07;;
18072;SDS011;9161;47.348;9.648;2022-11-13T08:26:19;15.27;;;7.90;;
18072;SDS011;9161;47.348;9.648;2022-11-13T08:31:08;17.97;;;8.93;;
18072;SDS011;9161;47.348;9.648;2022-11-13T08:35:53;15.70;;;7.63;;
18072;SDS011;9161;47.348;9.648;2022-11-13T08:40:37;14.57;;;7.70;;
18072;SDS011;9161;47.348;9.648;2022-11-13T08:45:20;17.57;;;8.63;;
18072;SDS011;9161;47.348;9.648;2022-11-13T08:50:06;14.10;;;7.73;;
18072;SDS011;9161;47.348;9.648;2022-11-13T08:54:51;14.73;;;7.03;;
18072;SDS011;9161;47.348;9.648;2022-11-13T08:59:35;14.50;;;7.57;;
18072;SDS011;9161;47.348;9.648;2022-11-13T09:04:19;13.97;;;7.43;;
18072;SDS011;9161;47.348;9.648;2022-11-13T09:09:05;15.27;;;7.27;;
18072;SDS011;9161;47.348;9.648;2022-11-13T09:13:49;17.17;;;7.87;;
18072;SDS011;9161;47.348;9.648;2022-11-13T09:18:34;16.60;;;8.23;;
18072;SDS011;9161;47.348;9.648;2022-11-13T09:23:20;13.37;;;6.80;;
18072;SDS011;9161;47.348;9.648;2022-11-13T09:28:06;12.00;;;6.30;;
18072;SDS011;9161;47.348;9.648;2022-11-13T09:32:51;12.23;;;6.60;;
18072;SDS011;9161;47.348;9.648;2022-11-13T09:37:36;11.37;;;5.73;;
18072;SDS011;9161;47.348;9.648;2022-11-13T09:42:20;14.10;;;6.43;;
18072;SDS011;9161;47.348;9.648;2022-11-13T09:47:10;12.00;;;6.70;;
18072;SDS011;9161;47.348;9.648;2022-11-13T09:52:01;11.73;;;6.23;;
18072;SDS011;9161;47.348;9.648;2022-11-13T09:56:55;10.53;;;6.13;;
18072;SDS011;9161;47.348;9.648;2022-11-13T10:01:49;12.33;;;6.33;;
18072;SDS011;9161;47.348;9.648;2022-11-13T10:06:42;14.30;;;6.43;;
18072;SDS011;9161;47.348;9.648;2022-11-13T10:11:38;14.67;;;7.63;;
18072;SDS011;9161;47.348;9.648;2022-11-13T10:16:30;14.10;;;7.40;;
18072;SDS011;9161;47.348;9.648;2022-11-13T10:21:19;13.30;;;6.53;;
18072;SDS011;9161;47.348;9.648;2022-11-13T10:26:18;11.00;;;6.57;;
18072;SDS011;9161;47.348;9.648;2022-11-13T10:31:10;14.90;;;7.73;;
18072;SDS011;9161;47.348;9.648;2022-11-13T10:35:55;14.63;;;7.50;;
18072;SDS011;9161;47.348;9.648;2022-11-13T10:40:44;12.40;;;7.40;;
18072;SDS011;9161;47.348;9.648;2022-11-13T10:45:29;13.03;;;7.13;;
18072;SDS011;9161;47.348;9.648;2022-11-13T10:50:25;11.90;;;6.57;;
18072;SDS011;9161;47.348;9.648;2022-11-13T10:55:12;11.07;;;6.60;;
18072;SDS011;9161;47.348;9.648;2022-11-13T11:00:17;14.80;;;7.17;;
18072;SDS011;9161;47.348;9.648;2022-11-13T11:05:04;12.30;;;6.73;;
18072;SDS011;9161;47.348;9.648;2022-11-13T11:09:57;11.83;;;6.83;;
18072;SDS011;9161;47.348;9.648;2022-11-13T11:14:41;11.50;;;6.63;;
18072;SDS011;9161;47.348;9.648;2022-11-13T11:19:35;13.80;;;6.67;;
18072;SDS011;9161;47.348;9.648;2022-11-13T11:24:25;12.87;;;6.97;;
18072;SDS011;9161;47.348;9.648;2022-11-13T11:29:13;12.50;;;6.90;;
18072;SDS011;9161;47.348;9.648;2022-11-13T11:34:01;12.53;;;7.40;;
18072;SDS011;9161;47.348;9.648;2022-11-13T11:38:58;11.20;;;6.67;;
18072;SDS011;9161;47.348;9.648;2022-11-13T11:43:50;9.77;;;6.03;;
18072;SDS011;9161;47.348;9.648;2022-11-13T11:48:42;10.80;;;6.20;;
18072;SDS011;9161;47.348;9.648;2022-11-13T11:53:28;12.43;;;6.07;;
18072;SDS011;9161;47.348;9.648;2022-11-13T11:58:25;11.23;;;6.43;;
18072;SDS011;9161;47.348;9.648;2022-11-13T12:03:31;11.67;;;7.10;;
18072;SDS011;9161;47.348;9.648;2022-11-13T12:08:28;8.93;;;5.87;;
18072;SDS011;9161;47.348;9.648;2022-11-13T12:13:21;8.87;;;5.40;;
18072;SDS011;9161;47.348;9.648;2022-11-13T12:18:11;7.97;;;5.27;;
18072;SDS011;9161;47.348;9.648;2022-11-13T12:23:01;9.03;;;5.87;;
18072;SDS011;9161;47.348;9.648;2022-11-13T12:27:53;11.37;;;6.13;;
18072;SDS011;9161;47.348;9.648;2022-11-13T12:32:51;8.97;;;5.03;;
18072;SDS011;9161;47.348;9.648;2022-11-13T12:37:56;10.30;;;6.20;;
18072;SDS011;9161;47.348;9.648;2022-11-13T12:42:45;8.63;;;5.30;;
18072;SDS011;9161;47.348;9.648;2022-11-13T12:47:32;9.87;;;5.90;;
18072;SDS011;9161;47.348;9.648;2022-11-13T12:52:17;9.50;;;6.43;;
18072;SDS011;9161;47.348;9.648;2022-11-13T12:57:14;10.00;;;6.30;;
18072;SDS011;9161;47.348;9.648;2022-11-13T13:02:18;9.97;;;5.87;;
18072;SDS011;9161;47.348;9.648;2022-11-13T13:07:18;10.03;;;6.13;;
18072;SDS011;9161;47.348;9.648;2022-11-13T13:12:37;11.23;;;6.40;;
18072;SDS011;9161;47.348;9.648;2022-11-13T13:17:49;9.60;;;5.70;;
18072;SDS011;9161;47.348;9.648;2022-11-13T13:23:05;9.10;;;5.53;;
18072;SDS011;9161;47.348;9.648;2022-11-13T13:28:15;9.17;;;5.67;;
18072;SDS011;9161;47.348;9.648;2022-11-13T13:33:24;9.50;;;6.07;;
18072;SDS011;9161;47.348;9.648;2022-11-13T13:38:19;10.23;;;6.23;;
18072;SDS011;9161;47.348;9.648;2022-11-13T13:43:11;9.30;;;6.00;;
18072;SDS011;9161;47.348;9.648;2022-11-13T13:48:07;9.10;;;5.70;;
18072;SDS011;9161;47.348;9.648;2022-11-13T13:52:54;8.27;;;4.67;;
18072;SDS011;9161;47.348;9.648;2022-11-13T13:57:39;9.13;;;5.67;;
18072;SDS011;9161;47.348;9.648;2022-11-13T14:02:24;8.90;;;5.33;;
18072;SDS011;9161;47.348;9.648;2022-11-13T14:07:17;9.53;;;5.43;;
18072;SDS011;9161;47.348;9.648;2022-11-13T14:12:05;9.07;;;5.83;;
18072;SDS011;9161;47.348;9.648;2022-11-13T14:16:59;8.17;;;5.27;;
18072;SDS011;9161;47.348;9.648;2022-11-13T14:21:44;9.63;;;6.20;;
18072;SDS011;9161;47.348;9.648;2022-11-13T14:26:30;10.80;;;6.63;;
18072;SDS011;9161;47.348;9.648;2022-11-13T14:31:15;8.67;;;5.70;;
18072;SDS011;9161;47.348;9.648;2022-11-13T14:35:59;8.53;;;5.37;;
18072;SDS011;9161;47.348;9.648;2022-11-13T14:40:45;9.33;;;5.47;;
18072;SDS011;9161;47.348;9.648;2022-11-13T14:45:30;7.83;;;5.17;;
18072;SDS011;9161;47.348;9.648;2022-11-13T14:50:21;9.87;;;5.90;;
18072;SDS011;9161;47.348;9.648;2022-11-13T14:55:06;8.77;;;5.73;;
18072;SDS011;9161;47.348;9.648;2022-11-13T15:00:09;8.50;;;5.60;;
18072;SDS011;9161;47.348;9.648;2022-11-13T15:04:54;8.43;;;5.33;;
18072;SDS011;9161;47.348;9.648;2022-11-13T15:09:40;10.27;;;6.10;;
18072;SDS011;9161;47.348;9.648;2022-11-13T15:14:24;11.23;;;6.50;;
18072;SDS011;9161;47.348;9.648;2022-11-13T15:19:10;10.23;;;6.10;;
18072;SDS011;9161;47.348;9.648;2022-11-13T15:23:59;10.57;;;6.40;;
18072;SDS011;9161;47.348;9.648;2022-11-13T15:28:46;10.77;;;6.90;;
18072;SDS011;9161;47.348;9.648;2022-11-13T15:33:30;8.77;;;5.73;;
18072;SDS011;9161;47.348;9.648;2022-11-13T15:38:14;10.20;;;5.97;;
18072;SDS011;9161;47.348;9.648;2022-11-13T15:42:58;11.03;;;6.63;;
18072;SDS011;9161;47.348;9.648;2022-11-13T15:47:43;13.70;;;7.23;;
18072;SDS011;9161;47.348;9.648;2022-11-13T15:52:28;16.70;;;7.57;;
18072;SDS011;9161;47.348;9.648;2022-11-13T15:57:18;9.83;;;6.10;;
18072;SDS011;9161;47.348;9.648;2022-11-13T16:02:03;9.77;;;5.13;;
18072;SDS011;9161;47.348;9.648;2022-11-13T16:06:48;8.73;;;5.60;;
18072;SDS011;9161;47.348;9.648;2022-11-13T16:11:33;8.30;;;5.27;;
18072;SDS011;9161;47.348;9.648;2022-11-13T16:16:19;9.53;;;5.63;;
18072;SDS011;9161;47.348;9.648;2022-11-13T16:21:06;10.50;;;5.50;;
18072;SDS011;9161;47.348;9.648;2022-11-13T16:25:54;8.20;;;5.47;;
18072;SDS011;9161;47.348;9.648;2022-11-13T16:30:38;9.17;;;5.90;;
18072;SDS011;9161;47.348;9.648;2022-11-13T16:35:23;9.23;;;5.53;;
18072;SDS011;9161;47.348;9.648;2022-11-13T16:40:14;8.47;;;5.63;;
18072;SDS011;9161;47.348;9.648;2022-11-13T16:45:06;10.20;;;5.47;;
18072;SDS011;9161;47.348;9.648;2022-11-13T16:49:51;7.47;;;4.87;;
18072;SDS011;9161;47.348;9.648;2022-11-13T16:54:35;9.27;;;5.63;;
18072;SDS011;9161;47.348;9.648;2022-11-13T16:59:20;10.20;;;6.07;;
18072;SDS011;9161;47.348;9.648;2022-11-13T17:04:06;8.17;;;5.60;;
18072;SDS011;9161;47.348;9.648;2022-11-13T17:08:54;12.37;;;7.03;;
18072;SDS011;9161;47.348;9.648;2022-11-13T17:13:48;11.63;;;6.37;;
18072;SDS011;9161;47.348;9.648;2022-11-13T17:18:33;12.07;;;7.17;;
18072;SDS011;9161;47.348;9.648;2022-11-13T17:23:19;13.90;;;7.80;;
18072;SDS011;9161;47.348;9.648;2022-11-13T17:28:04;14.20;;;8.70;;
18072;SDS011;9161;47.348;9.648;2022-11-13T17:32:49;11.40;;;7.27;;
18072;SDS011;9161;47.348;9.648;2022-11-13T17:37:33;10.63;;;6.40;;
18072;SDS011;9161;47.348;9.648;2022-11-13T17:42:19;11.27;;;6.73;;
18072;SDS011;9161;47.348;9.648;2022-11-13T17:47:04;12.13;;;6.63;;
18072;SDS011;9161;47.348;9.648;2022-11-13T17:51:49;11.80;;;6.23;;
18072;SDS011;9161;47.348;9.648;2022-11-13T17:56:35;12.37;;;7.17;;
18072;SDS011;9161;47.348;9.648;2022-11-13T18:01:25;11.80;;;7.43;;
18072;SDS011;9161;47.348;9.648;2022-11-13T18:06:13;14.67;;;8.20;;
18072;SDS011;9161;47.348;9.648;2022-11-13T18:11:05;13.87;;;7.53;;
18072;SDS011;9161;47.348;9.648;2022-11-13T18:15:50;15.20;;;7.73;;
18072;SDS011;9161;47.348;9.648;2022-11-13T18:20:52;11.60;;;7.20;;
18072;SDS011;9161;47.348;9.648;2022-11-13T18:25:37;12.53;;;7.30;;
18072;SDS011;9161;47.348;9.648;2022-11-13T18:30:23;13.47;;;7.70;;
18072;SDS011;9161;47.348;9.648;2022-11-13T18:35:08;12.70;;;7.70;;
18072;SDS011;9161;47.348;9.648;2022-11-13T18:39:54;13.50;;;7.40;;
18072;SDS011;9161;47.348;9.648;2022-11-13T18:44:40;14.23;;;8.00;;
18072;SDS011;9161;47.348;9.648;2022-11-13T18:49:24;12.87;;;7.03;;
18072;SDS011;9161;47.348;9.648;2022-11-13T18:54:15;16.80;;;8.90;;
18072;SDS011;9161;47.348;9.648;2022-11-13T18:59:03;12.10;;;7.47;;
18072;SDS011;9161;47.348;9.648;2022-11-13T19:03:48;17.53;;;8.10;;
18072;SDS011;9161;47.348;9.648;2022-11-13T19:08:54;13.13;;;7.77;;
18072;SDS011;9161;47.348;9.648;2022-11-13T19:13:44;13.60;;;8.33;;
18072;SDS011;9161;47.348;9.648;2022-11-13T19:18:33;13.67;;;7.80;;
18072;SDS011;9161;47.348;9.648;2022-11-13T19:23:19;16.63;;;8.70;;
18072;SDS011;9161;47.348;9.648;2022-11-13T19:28:03;17.43;;;8.83;;
18072;SDS011;9161;47.348;9.648;2022-11-13T19:32:49;16.37;;;8.73;;
18072;SDS011;9161;47.348;9.648;2022-11-13T19:37:39;18.83;;;8.57;;
18072;SDS011;9161;47.348;9.648;2022-11-13T19:42:25;14.93;;;8.37;;
18072;SDS011;9161;47.348;9.648;2022-11-13T19:47:11;16.57;;;9.57;;
18072;SDS011;9161;47.348;9.648;2022-11-13T19:52:00;18.37;;;9.33;;
18072;SDS011;9161;47.348;9.648;2022-11-13T19:56:47;16.87;;;9.40;;
18072;SDS011;9161;47.348;9.648;2022-11-13T20:01:32;17.97;;;9.17;;
18072;SDS011;9161;47.348;9.648;2022-11-13T20:06:17;18.80;;;10.33;;
18072;SDS011;9161;47.348;9.648;2022-11-13T20:11:02;17.53;;;9.77;;
18072;SDS011;9161;47.348;9.648;2022-11-13T20:15:53;15.47;;;8.33;;
18072;SDS011;9161;47.348;9.648;2022-11-13T20:20:37;14.70;;;8.60;;
18072;SDS011;9161;47.348;9.648;2022-11-13T20:25:29;16.43;;;9.27;;
18072;SDS011;9161;47.348;9.648;2022-11-13T20:30:14;18.20;;;9.87;;
18072;SDS011;9161;47.348;9.648;2022-11-13T20:35:01;19.90;;;9.57;;
18072;SDS011;9161;47.348;9.648;2022-11-13T20:39:49;16.83;;;9.17;;
18072;SDS011;9161;47.348;9.648;2022-11-13T20:44:34;18.93;;;10.13;;
18072;SDS011;9161;47.348;9.648;2022-11-13T20:49:18;17.77;;;8.70;;
18072;SDS011;9161;47.348;9.648;2022-11-13T20:54:05;14.43;;;8.13;;
18072;SDS011;9161;47.348;9.648;2022-11-13T20:58:50;15.43;;;8.93;;
18072;SDS011;9161;47.348;9.648;2022-11-13T21:03:35;18.73;;;8.93;;
18072;SDS011;9161;47.348;9.648;2022-11-13T21:08:22;16.07;;;8.93;;
18072;SDS011;9161;47.348;9.648;2022-11-13T21:13:08;17.83;;;9.80;;
18072;SDS011;9161;47.348;9.648;2022-11-13T21:17:53;15.60;;;8.60;;
18072;SDS011;9161;47.348;9.648;2022-11-13T21:22:40;16.20;;;9.10;;
18072;SDS011;9161;47.348;9.648;2022-11-13T21:27:25;15.73;;;8.57;;
18072;SDS011;9161;47.348;9.648;2022-11-13T21:32:11;16.60;;;8.77;;
18072;SDS011;9161;47.348;9.648;2022-11-13T21:36:55;15.93;;;9.70;;
18072;SDS011;9161;47.348;9.648;2022-11-13T21:41:39;15.53;;;8.43;;
18072;SDS011;9161;47.348;9.648;2022-11-13T21:46:23;15.17;;;9.30;;
18072;SDS011;9161;47.348;9.648;2022-11-13T21:51:09;13.40;;;7.13;;
18072;SDS011;9161;47.348;9.648;2022-11-13T21:55:54;15.40;;;7.87;;
18072;SDS011;9161;47.348;9.648;2022-11-13T22:00:37;13.67;;;8.17;;
18072;SDS011;9161;47.348;9.648;2022-11-13T22:05:21;13.63;;;8.63;;
18072;SDS011;9161;47.348;9.648;2022-11-13T22:10:06;17.40;;;8.43;;
18072;SDS011;9161;47.348;9.648;2022-11-13T22:14:50;14.83;;;8.07;;
18072;SDS011;9161;47.348;9.648;2022-11-13T22:19:34;16.10;;;8.90;;
18072;SDS011;9161;47.348;9.648;2022-11-13T22:24:18;17.07;;;8.93;;
18072;SDS011;9161;47.348;9.648;2022-11-13T22:29:04;15.70;;;8.20;;
18072;SDS011;9161;47.348;9.648;2022-11-13T22:33:49;13.80;;;8.53;;
18072;SDS011;9161;47.348;9.648;2022-11-13T22:38:35;16.50;;;8.80;;
18072;SDS011;9161;47.348;9.648;2022-11-13T22:43:19;14.67;;;8.73;;
18072;SDS011;9161;47.348;9.648;2022-11-13T22:48:05;17.27;;;9.17;;
18072;SDS011;9161;47.348;9.648;2022-11-13T22:52:49;15.87;;;8.70;;
18072;SDS011;9161;47.348;9.648;2022-11-13T22:57:33;16.27;;;8.80;;
18072;SDS011;9161;47.348;9.648;2022-11-13T23:02:17;16.13;;;9.40;;
18072;SDS011;9161;47.348;9.648;2022-11-13T23:07:02;18.43;;;10.43;;
18072;SDS011;9161;47.348;9.648;2022-11-13T23:11:46;19.53;;;9.83;;
18072;SDS011;9161;47.348;9.648;2022-11-13T23:16:29;15.90;;;9.33;;
18072;SDS011;9161;47.348;9.648;2022-11-13T23:21:14;20.57;;;9.73;;
18072;SDS011;9161;47.348;9.648;2022-11-13T23:26:00;17.07;;;9.80;;
18072;SDS011;9161;47.348;9.648;2022-11-13T23:30:44;17.10;;;9.53;;
18072;SDS011;9161;47.348;9.648;2022-11-13T23:35:27;17.73;;;9.17;;
18072;SDS011;9161;47.348;9.648;2022-11-13T23:40:11;17.53;;;8.87;;
18072;SDS011;9161;47.348;9.648;2022-11-13T23:44:56;16.07;;;8.87;;
18072;SDS011;9161;47.348;9.648;2022-11-13T23:49:40;16.97;;;8.67;;
18072;SDS011;9161;47.348;9.648;2022-11-13T23:54:24;18.87;;;10.30;;
18072;SDS011;9161;47.348;9.648;2022-11-13T23:59:07;17.07;;;9.47;;
